Time;durP1;ratioP1;P1;durP2;ratioP2;P2;SDS_P1;SDS_P2;PMS_P1;PMS_P2;Temp;Humidity;BMP_temperature;BMP_pressure;BME280_temperature;BME280_humidity;BME280_pressure;Samples;Min_cycle;Max_cycle;Signal;HPM_P1;HPM_P2
2021/03/21 00:00:37;;;;;;;8.30;3.50;;;;;;;3.07;61.61;100959.28;5029014;28;20132;-71
2021/03/21 00:03:04;;;;;;;5.40;2.97;;;;;;;3.07;60.75;100960.16;5013410;28;20073;-70
2021/03/21 00:05:31;;;;;;;7.13;3.58;;;;;;;3.30;60.60;100952.66;5014314;28;20141;-71
2021/03/21 00:08:03;;;;;;;6.82;3.53;;;;;;;3.00;61.38;100943.81;5024013;28;20386;-70
2021/03/21 00:10:30;;;;;;;6.60;3.33;;;;;;;3.07;61.81;100935.88;5003616;28;20056;-70
2021/03/21 00:12:58;;;;;;;8.15;3.47;;;;;;;3.00;61.67;100937.75;5006400;28;20109;-71
2021/03/21 00:15:25;;;;;;;6.43;3.33;;;;;;;2.99;62.21;100930.84;5034092;28;20089;-72
2021/03/21 00:17:54;;;;;;;10.77;3.60;;;;;;;3.01;62.32;100934.25;5001374;28;20073;-72
2021/03/21 00:20:28;;;;;;;6.72;3.30;;;;;;;3.10;62.50;100935.78;5005492;28;20220;-71
2021/03/21 00:22:54;;;;;;;8.13;3.90;;;;;;;3.13;61.91;100933.13;4999402;28;20073;-71
2021/03/21 00:25:23;;;;;;;7.72;3.83;;;;;;;3.13;62.66;100931.38;4997210;28;20123;-71
2021/03/21 00:27:51;;;;;;;7.35;3.88;;;;;;;3.16;62.80;100918.31;5019551;28;20049;-71
2021/03/21 00:30:23;;;;;;;8.77;3.90;;;;;;;3.00;63.49;100923.00;5027766;28;20053;-71
2021/03/21 00:32:50;;;;;;;7.72;4.47;;;;;;;3.01;64.54;100921.25;4996728;28;20513;-72
2021/03/21 00:35:18;;;;;;;7.15;4.03;;;;;;;2.97;65.11;100910.09;5011468;28;20674;-72
2021/03/21 00:37:46;;;;;;;11.30;4.22;;;;;;;3.03;64.83;100906.50;5017360;28;20140;-70
2021/03/21 00:40:17;;;;;;;11.45;4.50;;;;;;;3.17;64.75;100900.97;4993059;28;20042;-71
2021/03/21 00:42:43;;;;;;;8.50;4.90;;;;;;;3.07;66.05;100891.66;5028781;28;20117;-71
2021/03/21 00:45:12;;;;;;;10.07;4.18;;;;;;;3.14;66.34;100886.25;5013886;28;20164;-70
2021/03/21 00:47:39;;;;;;;7.93;4.20;;;;;;;3.24;66.17;100882.56;5014960;28;20048;-72
2021/03/21 00:50:09;;;;;;;9.75;4.75;;;;;;;3.09;66.46;100877.72;5009692;28;20058;-72
2021/03/21 00:52:35;;;;;;;11.15;4.50;;;;;;;2.99;67.11;100864.09;5015514;28;20060;-71
2021/03/21 00:55:03;;;;;;;8.65;5.00;;;;;;;3.07;67.87;100870.84;4997305;28;20045;-71
2021/03/21 00:57:30;;;;;;;15.85;4.68;;;;;;;3.16;68.79;100861.09;5011304;28;20052;-70
2021/03/21 00:59:57;;;;;;;9.25;4.53;;;;;;;3.21;69.03;100853.16;5020128;28;20047;-70
2021/03/21 01:02:24;;;;;;;10.90;5.40;;;;;;;3.23;69.76;100857.41;5014808;28;20056;-72
2021/03/21 01:04:51;;;;;;;11.15;5.13;;;;;;;3.05;70.96;100856.13;5036345;28;20068;-70
2021/03/21 01:07:17;;;;;;;12.93;5.50;;;;;;;3.16;72.48;100847.22;5032683;28;20513;-71
2021/03/21 01:09:44;;;;;;;8.38;5.65;;;;;;;2.73;73.81;100841.28;5016225;28;20053;-71
2021/03/21 01:12:11;;;;;;;10.25;5.15;;;;;;;2.85;73.88;100837.56;4994933;28;20046;-69
2021/03/21 01:14:38;;;;;;;10.75;5.40;;;;;;;2.88;74.17;100834.00;5031689;28;20053;-71
2021/03/21 01:17:05;;;;;;;10.80;5.32;;;;;;;2.92;74.61;100825.25;5028359;28;20128;-70
2021/03/21 01:19:31;;;;;;;9.68;6.20;;;;;;;2.82;75.78;100821.16;5014428;28;20517;-70
2021/03/21 01:21:58;;;;;;;11.20;5.70;;;;;;;2.96;75.63;100817.34;5026787;28;20055;-70
2021/03/21 01:24:26;;;;;;;9.05;5.85;;;;;;;2.87;76.35;100820.16;5001158;28;20064;-71
2021/03/21 01:26:53;;;;;;;11.73;6.22;;;;;;;2.90;76.79;100807.09;5032083;28;20473;-71
2021/03/21 01:29:20;;;;;;;8.75;6.25;;;;;;;2.74;78.16;100797.94;5013174;28;20696;-71
2021/03/21 01:31:46;;;;;;;16.48;6.60;;;;;;;2.69;79.57;100798.06;4992485;28;20064;-71
2021/03/21 01:34:14;;;;;;;13.00;6.43;;;;;;;2.59;79.98;100795.72;4994437;28;20077;-71
2021/03/21 01:36:40;;;;;;;12.45;6.80;;;;;;;2.48;81.11;100790.78;4993243;28;20054;-69
2021/03/21 01:39:12;;;;;;;11.52;8.02;;;;;;;2.71;81.13;100795.44;4993101;28;20041;-71
2021/03/21 01:41:40;;;;;;;11.73;7.43;;;;;;;2.57;82.56;100785.38;5007531;28;20509;-71
2021/03/21 01:44:14;;;;;;;11.95;7.35;;;;;;;2.66;82.92;100776.50;5014089;28;20054;-71
2021/03/21 01:46:59;;;;;;;12.60;7.20;;;;;;;2.60;83.35;100769.69;5011892;28;20413;-71
2021/03/21 01:49:30;;;;;;;11.05;6.85;;;;;;;2.78;83.57;100769.25;5029210;28;20046;-72
2021/03/21 01:51:58;;;;;;;12.38;7.18;;;;;;;2.78;83.79;100763.19;5015115;28;20068;-71
2021/03/21 01:54:25;;;;;;;13.63;7.40;;;;;;;2.76;84.58;100762.38;4997350;28;20041;-72
2021/03/21 01:56:55;;;;;;;14.70;8.20;;;;;;;2.70;85.34;100749.53;5035453;28;20063;-70
2021/03/21 01:59:32;;;;;;;17.00;8.30;;;;;;;2.72;85.91;100746.00;5030650;28;20045;-70
2021/03/21 02:02:02;;;;;;;12.15;8.07;;;;;;;2.57;87.36;100738.59;5023234;28;20047;-70
2021/03/21 02:04:29;;;;;;;10.80;7.85;;;;;;;2.53;88.06;100735.22;4999122;28;20049;-71
2021/03/21 02:07:14;;;;;;;12.55;8.73;;;;;;;2.63;88.52;100735.84;4997448;28;20403;-69
2021/03/21 02:09:53;;;;;;;15.32;9.02;;;;;;;2.71;89.11;100733.06;5020237;28;20132;-70
2021/03/21 02:12:29;;;;;;;13.48;8.82;;;;;;;2.70;89.54;100727.00;5020892;28;20077;-71
2021/03/21 02:15:01;;;;;;;;;;;;;;;2.71;90.52;100720.91;5029260;28;20049;-70
2021/03/21 02:18:06;;;;;;;19.92;10.52;;;;;;;2.57;92.26;100717.81;5013320;28;20596;-71
2021/03/21 02:20:51;;;;;;;14.43;9.30;;;;;;;2.41;93.86;100714.69;5008325;28;20046;-71
2021/03/21 02:23:57;;;;;;;20.98;10.98;;;;;;;2.42;94.78;100707.75;5002961;28;20068;-70
2021/03/21 02:27:03;;;;;;;15.73;10.35;;;;;;;2.34;96.23;100705.34;5012734;28;20087;-72
2021/03/21 02:29:32;;;;;;;18.33;10.73;;;;;;;2.27;97.72;100698.59;5024651;28;20049;-71
2021/03/21 02:32:06;;;;;;;18.88;11.25;;;;;;;2.37;97.75;100694.03;4993449;28;20140;-71
2021/03/21 02:34:35;;;;;;;18.35;11.60;;;;;;;2.40;97.87;100693.97;5013210;28;20518;-71
2021/03/21 02:37:21;;;;;;;19.30;12.52;;;;;;;2.41;98.34;100680.09;5022855;28;20166;-70
2021/03/21 02:39:56;;;;;;;19.83;12.30;;;;;;;2.35;99.32;100678.50;5017032;28;20049;-70
2021/03/21 02:42:28;;;;;;;19.77;12.27;;;;;;;2.36;100.00;100672.41;5018035;28;20073;-70
2021/03/21 02:45:02;;;;;;;20.13;12.65;;;;;;;2.45;99.95;100661.78;5018354;28;20061;-70
2021/03/21 02:47:29;;;;;;;18.85;12.68;;;;;;;2.61;99.07;100658.78;4994108;28;20119;-70
2021/03/21 02:50:07;;;;;;;16.73;11.85;;;;;;;2.53;99.55;100654.66;5011896;28;20057;-71
2021/03/21 02:52:38;;;;;;;16.05;11.05;;;;;;;2.79;99.33;100651.38;4993609;28;20133;-70
2021/03/21 02:55:18;;;;;;;16.73;11.95;;;;;;;2.70;99.34;100643.81;4992116;28;20045;-71
2021/03/21 02:57:57;;;;;;;16.30;11.15;;;;;;;2.53;100.00;100648.59;5010272;28;20083;-70
2021/03/21 03:00:34;;;;;;;17.90;11.98;;;;;;;2.53;100.00;100646.00;4993769;28;20045;-70
2021/03/21 03:03:02;;;;;;;17.15;11.95;;;;;;;2.44;100.00;100641.03;5012321;28;20053;-71
2021/03/21 03:05:37;;;;;;;18.73;11.98;;;;;;;2.44;100.00;100638.44;5024174;28;20133;-70
2021/03/21 03:08:21;;;;;;;20.08;12.75;;;;;;;2.48;100.00;100643.53;5016727;28;20136;-72
2021/03/21 03:10:59;;;;;;;20.92;12.80;;;;;;;2.47;100.00;100630.56;5017612;23;20513;-73
2021/03/21 03:13:40;;;;;;;16.33;10.57;;;;;;;2.48;100.00;100627.94;4984865;28;20148;-72
2021/03/21 03:16:21;;;;;;;19.75;11.77;;;;;;;2.43;100.00;100619.41;4996962;28;20053;-72
2021/03/21 03:18:58;;;;;;;20.17;12.15;;;;;;;2.59;100.00;100612.03;4997961;28;20073;-73
2021/03/21 03:21:32;;;;;;;20.25;12.52;;;;;;;2.62;100.00;100604.19;4997326;28;20037;-74
2021/03/21 03:24:08;;;;;;;16.20;10.60;;;;;;;2.50;100.00;100602.75;5011150;28;20050;-72
2021/03/21 03:26:54;;;;;;;17.27;11.38;;;;;;;2.51;100.00;100606.19;5010712;28;20045;-73
2021/03/21 03:29:34;;;;;;;19.85;12.25;;;;;;;2.67;100.00;100596.25;5010964;28;20505;-72
2021/03/21 03:32:04;;;;;;;19.77;11.85;;;;;;;2.70;100.00;100594.44;5033043;28;20049;-71
2021/03/21 03:34:32;;;;;;;20.17;12.48;;;;;;;2.66;100.00;100597.16;5001111;28;20050;-71
2021/03/21 03:36:59;;;;;;;21.75;12.43;;;;;;;2.71;100.00;100583.13;4994673;28;20045;-72
2021/03/21 03:39:26;;;;;;;20.70;11.80;;;;;;;2.72;100.00;100587.44;5009414;28;20053;-72
2021/03/21 03:42:06;;;;;;;17.95;12.07;;;;;;;2.73;100.00;100583.94;5011435;28;20068;-73
2021/03/21 03:44:51;;;;;;;18.92;11.40;;;;;;;2.88;100.00;100574.88;4993716;28;20057;-72
2021/03/21 03:47:28;;;;;;;19.17;11.75;;;;;;;2.72;100.00;100574.44;5012824;28;20076;-72
2021/03/21 03:50:03;;;;;;;17.13;11.40;;;;;;;2.87;100.00;100567.97;5032639;28;20072;-71
2021/03/21 03:53:01;;;;;;;17.27;11.65;;;;;;;2.75;100.00;100558.78;5010683;28;20125;-72
2021/03/21 03:55:46;;;;;;;16.77;11.00;;;;;;;2.74;100.00;100556.19;5008484;28;20071;-71
2021/03/21 03:58:19;;;;;;;18.75;12.50;;;;;;;2.75;100.00;100544.91;5017097;28;20060;-73
2021/03/21 04:00:55;;;;;;;19.63;11.25;;;;;;;2.76;100.00;100539.66;4979966;28;20041;-73
2021/03/21 04:03:29;;;;;;;16.67;11.27;;;;;;;2.82;100.00;100538.63;5025003;28;20053;-73
2021/03/21 04:05:58;;;;;;;13.85;10.45;;;;;;;2.86;100.00;100529.00;5011120;28;20524;-72
2021/03/21 04:08:36;;;;;;;16.90;11.65;;;;;;;2.92;100.00;100521.03;5013807;28;20053;-72
2021/03/21 04:11:30;;;;;;;14.43;10.77;;;;;;;2.83;100.00;100516.94;4991260;28;20124;-73
2021/03/21 04:14:03;;;;;;;14.73;10.55;;;;;;;2.98;100.00;100516.50;5011961;28;20102;-73
2021/03/21 04:16:34;;;;;;;17.50;10.60;;;;;;;2.91;100.00;100509.78;5016195;28;20053;-72
2021/03/21 04:19:07;;;;;;;13.88;9.75;;;;;;;3.03;100.00;100499.00;4993515;28;20042;-73
2021/03/21 04:21:42;;;;;;;13.18;9.10;;;;;;;2.98;100.00;100511.31;5001698;28;20061;-71
2021/03/21 04:24:25;;;;;;;13.60;9.30;;;;;;;3.05;100.00;100498.97;5023897;28;20045;-73
2021/03/21 04:26:58;;;;;;;14.63;8.60;;;;;;;3.13;100.00;100491.78;5021829;28;20223;-72
2021/03/21 04:29:35;;;;;;;12.48;8.93;;;;;;;3.12;100.00;100489.25;5031935;28;20559;-72
2021/03/21 04:32:10;;;;;;;14.38;8.57;;;;;;;3.11;100.00;100485.78;5037472;28;20129;-72
2021/03/21 04:34:38;;;;;;;16.55;9.02;;;;;;;3.07;100.00;100488.53;5024943;28;20069;-72
2021/03/21 04:37:06;;;;;;;12.45;8.80;;;;;;;3.07;100.00;100480.72;5025630;28;20079;-72
2021/03/21 04:39:35;;;;;;;11.50;8.98;;;;;;;3.13;100.00;100486.59;5016767;28;20077;-73
2021/03/21 04:42:07;;;;;;;10.35;7.47;;;;;;;3.21;100.00;100481.16;5000384;28;20518;-73
2021/03/21 04:44:46;;;;;;;10.65;7.82;;;;;;;3.01;100.00;100480.00;5014313;28;20056;-73
2021/03/21 04:47:16;;;;;;;11.52;8.50;;;;;;;3.05;100.00;100472.94;5015033;28;20369;-72
2021/03/21 04:49:44;;;;;;;12.82;8.13;;;;;;;3.13;100.00;100470.13;5007771;28;20068;-73
2021/03/21 04:52:43;;;;;;;14.05;7.10;;;;;;;3.10;100.00;100463.25;5010607;28;20049;-73
2021/03/21 04:55:24;;;;;;;13.25;8.40;;;;;;;3.11;100.00;100464.09;5016167;28;20064;-73
2021/03/21 04:57:55;;;;;;;11.68;7.90;;;;;;;3.06;100.00;100459.03;5009303;28;20524;-73
2021/03/21 05:00:42;;;;;;;14.32;8.43;;;;;;;3.03;100.00;100460.00;4997158;28;20037;-73
2021/03/21 05:03:20;;;;;;;12.00;8.25;;;;;;;3.03;100.00;100454.81;4999914;28;20056;-72
2021/03/21 05:06:00;;;;;;;11.23;7.45;;;;;;;3.08;100.00;100454.66;5031135;28;20065;-73
2021/03/21 05:08:39;;;;;;;9.90;7.50;;;;;;;2.99;100.00;100455.78;5023588;28;20472;-73
2021/03/21 05:11:07;;;;;;;11.30;6.50;;;;;;;3.08;100.00;100456.41;5011962;28;20072;-73
2021/03/21 05:13:43;;;;;;;9.25;7.03;;;;;;;3.12;100.00;100451.06;4996813;28;20539;-71
2021/03/21 05:16:34;;;;;;;11.52;6.82;;;;;;;3.15;100.00;100457.91;4993906;28;20049;-72
2021/03/21 05:19:15;;;;;;;10.95;6.70;;;;;;;3.08;100.00;100451.22;5014535;28;20110;-72
2021/03/21 05:21:47;;;;;;;10.25;6.18;;;;;;;3.17;100.00;100450.94;5029746;28;20062;-72
2021/03/21 05:24:26;;;;;;;8.68;6.40;;;;;;;3.21;100.00;100448.19;5005335;28;20534;-73
2021/03/21 05:27:02;;;;;;;11.27;5.30;;;;;;;3.19;100.00;100441.31;5009380;28;20068;-72
2021/03/21 05:29:37;;;;;;;8.02;6.10;;;;;;;3.23;100.00;100442.91;5014072;28;20096;-72
2021/03/21 05:32:09;;;;;;;8.15;5.70;;;;;;;3.29;100.00;100442.75;4979965;28;20136;-72
2021/03/21 05:34:36;;;;;;;9.00;5.53;;;;;;;3.35;100.00;100442.53;4997409;28;20075;-72
2021/03/21 05:37:28;;;;;;;8.77;5.53;;;;;;;3.50;100.00;100439.44;5025895;28;20060;-73
2021/03/21 05:40:00;;;;;;;8.13;5.25;;;;;;;3.44;100.00;100431.00;5028937;28;20186;-72
2021/03/21 05:42:37;;;;;;;6.20;4.97;;;;;;;3.43;100.00;100427.53;5028578;28;20063;-73
2021/03/21 05:45:26;;;;;;;8.40;5.07;;;;;;;3.49;100.00;100429.94;5020131;28;20123;-72
2021/03/21 05:48:20;;;;;;;9.15;4.75;;;;;;;3.50;100.00;100429.03;5018343;28;20501;-72
2021/03/21 05:51:30;;;;;;;5.75;4.22;;;;;;;3.67;100.00;100422.41;5007464;28;20052;-73
2021/03/21 05:54:22;;;;;;;6.10;3.97;;;;;;;3.69;100.00;100415.38;5021529;28;20054;-72
2021/03/21 05:56:55;;;;;;;8.73;4.57;;;;;;;3.67;100.00;100414.59;5011338;28;20049;-72
2021/03/21 05:59:52;;;;;;;6.78;3.58;;;;;;;3.55;100.00;100411.50;5026962;28;20054;-72
2021/03/21 06:02:29;;;;;;;;;;;;;;;3.63;100.00;100407.78;5003991;28;20061;-73
2021/03/21 06:05:23;;;;;;;5.78;4.10;;;;;;;3.54;100.00;100409.81;5015012;28;19927;-72
2021/03/21 06:08:14;;;;;;;4.78;3.67;;;;;;;3.67;100.00;100401.59;5027196;28;20057;-73
2021/03/21 06:10:59;;;;;;;4.97;3.47;;;;;;;3.72;100.00;100410.94;5011321;28;20045;-73
2021/03/21 06:13:53;;;;;;;4.90;3.58;;;;;;;3.62;100.00;100408.72;5008386;28;20049;-74
2021/03/21 06:16:45;;;;;;;5.25;3.42;;;;;;;3.72;100.00;100399.69;5024431;28;20052;-73
2021/03/21 06:19:33;;;;;;;4.72;3.55;;;;;;;3.71;100.00;100406.63;4993546;28;20057;-73
2021/03/21 06:22:20;;;;;;;5.72;3.40;;;;;;;3.68;100.00;100396.31;5025296;28;20430;-72
2021/03/21 06:25:03;;;;;;;4.95;3.60;;;;;;;3.77;100.00;100403.81;4996010;28;20054;-73
2021/03/21 06:28:07;;;;;;;6.45;4.30;;;;;;;3.81;100.00;100401.97;5012038;28;20056;-73
2021/03/21 06:30:39;;;;;;;10.00;3.88;;;;;;;3.76;100.00;100390.84;5027529;28;20051;-73
2021/03/21 06:33:31;;;;;;;5.97;3.88;;;;;;;3.83;100.00;100394.97;5011646;28;20049;-73
2021/03/21 06:36:15;;;;;;;7.22;4.30;;;;;;;3.83;100.00;100392.34;5017011;28;20041;-72
2021/03/21 06:38:51;;;;;;;6.45;4.32;;;;;;;3.95;100.00;100389.31;4998169;28;20781;-72
2021/03/21 06:41:50;;;;;;;6.93;4.10;;;;;;;3.94;100.00;100386.75;4992170;28;20045;-72
2021/03/21 06:44:36;;;;;;;6.00;4.13;;;;;;;4.01;100.00;100390.88;4991675;28;20050;-72
2021/03/21 06:47:36;;;;;;;5.90;4.60;;;;;;;4.09;100.00;100377.53;4997745;28;20037;-73
2021/03/21 06:50:31;;;;;;;7.22;4.22;;;;;;;4.07;100.00;100382.81;4998879;28;20284;-71
2021/03/21 06:53:15;;;;;;;6.40;4.65;;;;;;;4.21;100.00;100390.13;4996879;28;20042;-73
2021/03/21 06:55:44;;;;;;;8.60;4.78;;;;;;;4.19;100.00;100384.13;4998256;28;20053;-73
2021/03/21 06:58:14;;;;;;;6.03;4.72;;;;;;;4.17;100.00;100375.50;5013385;28;20207;-73
2021/03/21 07:01:08;;;;;;;7.88;5.30;;;;;;;4.16;100.00;100372.06;5011382;28;20041;-73
2021/03/21 07:04:01;;;;;;;10.02;5.72;;;;;;;4.30;100.00;100372.41;5011181;28;20076;-72
2021/03/21 07:06:46;;;;;;;5.82;4.40;;;;;;;4.22;100.00;100370.97;5016159;28;20049;-72
2021/03/21 07:09:16;;;;;;;7.37;4.67;;;;;;;4.25;100.00;100365.66;5009828;28;20050;-73
2021/03/21 07:11:48;;;;;;;6.50;4.10;;;;;;;4.39;100.00;100372.97;5021064;28;20473;-72
2021/03/21 07:14:34;;;;;;;5.22;3.90;;;;;;;4.52;100.00;100371.59;4991393;28;20152;-73
2021/03/21 07:17:27;;;;;;;6.15;4.63;;;;;;;4.41;100.00;100374.59;5014594;28;20083;-72
2021/03/21 07:20:26;;;;;;;6.10;4.70;;;;;;;4.68;100.00;100367.47;5006601;28;20057;-73
2021/03/21 07:23:22;;;;;;;7.00;5.35;;;;;;;4.39;100.00;100368.59;5040411;28;20072;-74
2021/03/21 07:26:13;;;;;;;7.45;5.72;;;;;;;4.52;100.00;100369.00;5006885;28;20056;-72
2021/03/21 07:29:17;;;;;;;7.95;6.15;;;;;;;4.54;100.00;100372.38;5039750;28;20057;-72
2021/03/21 07:32:12;;;;;;;9.45;7.10;;;;;;;4.52;100.00;100362.03;5021677;28;20064;-73
2021/03/21 07:35:01;;;;;;;9.10;7.55;;;;;;;4.60;100.00;100361.72;4999105;28;20059;-73
2021/03/21 07:37:44;;;;;;;8.63;7.28;;;;;;;4.61;100.00;100362.59;5016154;28;20057;-73
2021/03/21 07:40:21;;;;;;;8.00;6.63;;;;;;;4.53;100.00;100368.91;5023978;28;20132;-72
2021/03/21 07:43:12;;;;;;;9.65;6.57;;;;;;;4.47;100.00;100356.13;4998267;28;20395;-72
2021/03/21 07:46:04;;;;;;;6.70;5.25;;;;;;;4.62;100.00;100365.13;4997049;28;20053;-73
2021/03/21 07:48:42;;;;;;;8.70;5.13;;;;;;;4.82;100.00;100353.94;5010803;28;20606;-74
2021/03/21 07:51:15;;;;;;;7.38;5.40;;;;;;;5.03;100.00;100353.03;5012320;28;20046;-72
2021/03/21 07:53:53;;;;;;;9.30;4.75;;;;;;;5.17;100.00;100355.09;5033429;28;20437;-72
2021/03/21 07:56:42;;;;;;;7.38;3.72;;;;;;;5.26;100.00;100352.09;5017712;28;20061;-75
2021/03/21 07:59:16;;;;;;;5.10;4.00;;;;;;;5.44;100.00;100347.03;5033663;28;20147;-74
2021/03/21 08:01:43;;;;;;;5.53;2.97;;;;;;;5.45;100.00;100349.59;5007528;28;20072;-74
2021/03/21 08:04:16;;;;;;;4.05;3.30;;;;;;;5.64;100.00;100352.28;5016748;28;20043;-71
2021/03/21 08:06:45;;;;;;;4.80;2.50;;;;;;;5.72;100.00;100344.09;5021700;28;20048;-72
2021/03/21 08:09:12;;;;;;;3.08;2.35;;;;;;;5.68;100.00;100346.00;4983924;28;20080;-73
2021/03/21 08:11:41;;;;;;;4.50;2.30;;;;;;;5.45;100.00;100344.38;5034460;28;20048;-71
2021/03/21 08:14:25;;;;;;;2.95;2.20;;;;;;;5.83;100.00;100347.94;5005105;28;20680;-74
2021/03/21 08:16:55;;;;;;;3.67;1.63;;;;;;;5.80;100.00;100332.38;5002064;28;20424;-73
2021/03/21 08:19:27;;;;;;;1.70;1.40;;;;;;;5.63;100.00;100327.09;5025141;28;20052;-72
2021/03/21 08:21:55;;;;;;;2.35;1.52;;;;;;;5.68;100.00;100330.34;4992918;28;20064;-73
2021/03/21 08:24:32;;;;;;;2.92;2.42;;;;;;;5.98;99.47;100322.91;5006351;28;20037;-72
2021/03/21 08:27:09;;;;;;;2.03;1.10;;;;;;;6.32;97.44;100327.47;4989206;28;20131;-73
2021/03/21 08:30:02;;;;;;;1.35;1.10;;;;;;;6.46;96.22;100328.59;5011624;28;20057;-72
2021/03/21 08:32:34;;;;;;;1.30;0.95;;;;;;;6.16;96.87;100334.31;4980936;28;20056;-75
2021/03/21 08:35:18;;;;;;;2.92;1.20;;;;;;;6.11;98.08;100332.84;4999131;28;20465;-74
2021/03/21 08:37:46;;;;;;;2.47;1.38;;;;;;;6.05;98.02;100331.34;5013749;28;20062;-74
2021/03/21 08:40:16;;;;;;;1.45;1.10;;;;;;;6.02;98.16;100326.25;5001908;28;20049;-74
2021/03/21 08:43:14;;;;;;;3.17;1.15;;;;;;;5.89;99.28;100317.22;5011037;28;20367;-75
2021/03/21 08:45:56;;;;;;;2.63;1.73;;;;;;;5.70;99.43;100320.66;5012760;28;20053;-73
2021/03/21 08:48:33;;;;;;;3.55;1.40;;;;;;;5.50;100.00;100318.91;5010637;28;20059;-73
2021/03/21 08:51:24;;;;;;;2.05;1.15;;;;;;;5.45;100.00;100313.06;5006871;28;20061;-74
2021/03/21 08:54:00;;;;;;;3.72;1.70;;;;;;;5.34;100.00;100325.69;5005516;28;20072;-74
2021/03/21 08:56:36;;;;;;;2.47;1.60;;;;;;;5.29;100.00;100319.81;4983193;28;20511;-75
2021/03/21 08:59:09;;;;;;;6.82;1.70;;;;;;;5.26;100.00;100322.56;4980702;28;20049;-75
2021/03/21 09:01:36;;;;;;;4.32;2.05;;;;;;;5.35;100.00;100335.22;5025128;28;20120;-74
2021/03/21 09:04:11;;;;;;;5.60;1.92;;;;;;;5.19;100.00;100332.41;5011711;28;20619;-74
2021/03/21 09:06:42;;;;;;;5.13;2.05;;;;;;;5.38;100.00;100340.31;5027064;28;20041;-73
2021/03/21 09:09:27;;;;;;;4.22;1.95;;;;;;;5.33;100.00;100335.28;4985721;28;20136;-74
2021/03/21 09:12:00;;;;;;;4.70;1.67;;;;;;;5.37;100.00;100340.41;5019157;28;20045;-73
2021/03/21 09:14:31;;;;;;;4.10;1.85;;;;;;;5.53;100.00;100352.72;5031383;28;20051;-73
2021/03/21 09:17:24;;;;;;;6.38;2.13;;;;;;;5.64;99.81;100354.03;5001971;28;20049;-72
2021/03/21 09:20:03;;;;;;;8.40;1.90;;;;;;;5.65;99.97;100360.94;4989175;28;20054;-76
2021/03/21 09:22:37;;;;;;;9.63;2.58;;;;;;;5.56;98.22;100357.81;5014438;28;20049;-74
2021/03/21 09:25:12;;;;;;;4.82;1.75;;;;;;;5.75;98.41;100364.84;4993850;28;20133;-75
2021/03/21 09:27:43;;;;;;;5.50;1.77;;;;;;;5.80;97.38;100361.13;5035490;28;20057;-75
2021/03/21 09:31:01;;;;;;;9.68;2.38;;;;;;;5.98;97.44;100359.50;5017735;28;20056;-75
2021/03/21 09:33:40;;;;;;;9.60;2.30;;;;;;;5.67;98.25;100373.00;4970295;28;20042;-75
2021/03/21 09:36:22;;;;;;;9.52;2.25;;;;;;;5.68;99.04;100371.28;4931839;29;20554;-75
2021/03/21 09:39:01;;;;;;;7.53;2.03;;;;;;;5.71;98.46;100373.72;5016004;28;20045;-76
2021/03/21 09:41:38;;;;;;;8.25;2.50;;;;;;;5.65;98.88;100381.84;5011656;28;20429;-74
2021/03/21 09:44:19;;;;;;;10.48;2.47;;;;;;;5.62;97.90;100382.81;4994690;28;20527;-76
2021/03/21 09:46:48;;;;;;;17.20;2.80;;;;;;;5.82;98.58;100392.44;4994634;28;20088;-75
2021/03/21 09:49:56;;;;;;;8.80;2.88;;;;;;;5.73;98.59;100384.97;5024423;28;20058;-75
2021/03/21 09:52:52;;;;;;;10.18;2.60;;;;;;;5.59;97.68;100388.19;5032032;28;20508;-75
2021/03/21 09:55:39;;;;;;;11.15;2.78;;;;;;;5.47;98.83;100394.75;4955010;28;20475;-74
2021/03/21 09:58:24;;;;;;;12.73;3.33;;;;;;;5.59;98.41;100404.69;5001307;28;20052;-76
2021/03/21 10:01:05;;;;;;;9.13;2.40;;;;;;;5.57;98.74;100409.13;5010440;28;20049;-74
2021/03/21 10:03:39;;;;;;;13.27;2.92;;;;;;;5.63;99.51;100407.16;4994009;28;20045;-75
2021/03/21 10:06:18;;;;;;;10.77;2.63;;;;;;;5.95;96.86;100411.06;4995880;28;20652;-75
2021/03/21 10:09:12;;;;;;;9.30;2.72;;;;;;;6.04;96.81;100415.91;5004697;28;20108;-77
2021/03/21 10:11:53;;;;;;;9.13;2.60;;;;;;;6.12;95.74;100410.31;4998242;28;20065;-77
2021/03/21 10:14:57;;;;;;;18.27;2.97;;;;;;;6.08;96.86;100409.63;5030075;28;20712;-75
2021/03/21 10:18:13;;;;;;;8.60;2.40;;;;;;;6.19;95.35;100415.22;5009123;28;20113;-76
2021/03/21 10:21:29;;;;;;;10.40;2.25;;;;;;;6.22;92.88;100415.09;5001398;28;20044;-76
2021/03/21 10:24:05;;;;;;;8.05;2.25;;;;;;;6.10;92.80;100426.06;5013555;28;20200;-76
2021/03/21 10:26:35;;;;;;;13.48;3.65;;;;;;;6.05;92.59;100430.66;5027499;28;20065;-74
2021/03/21 10:29:21;;;;;;;9.20;2.53;;;;;;;6.14;92.15;100430.25;5029731;23;20255;-75
2021/03/21 10:31:48;;;;;;;11.88;2.35;;;;;;;6.34;90.58;100431.97;5057396;28;20095;-76
2021/03/21 10:34:15;;;;;;;14.63;2.60;;;;;;;6.30;89.73;100433.91;5034047;28;20060;-77
2021/03/21 10:36:45;;;;;;;18.45;2.92;;;;;;;6.18;90.73;100441.44;5032849;28;20060;-75
2021/03/21 10:39:24;;;;;;;11.77;2.38;;;;;;;5.84;92.42;100441.06;5008489;28;20277;-76
2021/03/21 10:42:11;;;;;;;11.55;2.88;;;;;;;5.76;92.01;100447.53;5013611;28;20384;-74
2021/03/21 10:44:38;;;;;;;11.07;2.53;;;;;;;6.01;91.39;100445.59;4998643;28;20061;-76
2021/03/21 10:47:12;;;;;;;14.73;3.47;;;;;;;6.09;90.61;100455.75;5034066;28;20400;-76
2021/03/21 10:49:53;;;;;;;12.55;3.30;;;;;;;6.06;88.70;100458.47;5024310;28;20116;-81
2021/03/21 10:52:29;;;;;;;11.35;2.83;;;;;;;6.19;88.67;100464.03;5026492;28;20512;-73
2021/03/21 10:55:11;;;;;;;12.35;2.65;;;;;;;6.11;88.48;100469.59;5020856;28;20110;-75
2021/03/21 10:57:42;;;;;;;14.88;3.13;;;;;;;6.10;89.09;100470.50;5033248;28;20081;-74
2021/03/21 11:00:15;;;;;;;17.45;3.60;;;;;;;5.77;89.35;100478.81;5039663;28;20620;-74
2021/03/21 11:03:05;;;;;;;13.30;3.08;;;;;;;5.48;92.42;100485.22;5007038;28;20041;-76
2021/03/21 11:05:43;;;;;;;15.57;3.38;;;;;;;5.45;92.83;100477.53;5021817;28;20047;-76
2021/03/21 11:08:13;;;;;;;17.83;3.60;;;;;;;5.46;93.76;100475.75;5021526;28;20080;-76
2021/03/21 11:10:46;;;;;;;20.98;4.18;;;;;;;5.30;95.36;100493.78;5019473;28;20095;-79
2021/03/21 11:13:28;;;;;;;16.92;3.67;;;;;;;5.33;94.28;100491.91;5032087;28;20049;-74
2021/03/21 11:15:55;;;;;;;15.05;3.83;;;;;;;5.32;94.92;100497.19;5018328;28;20072;-76
2021/03/21 11:18:30;;;;;;;14.73;3.95;;;;;;;4.95;93.93;100506.41;5029011;28;20065;-77
2021/03/21 11:21:20;;;;;;;25.40;5.63;;;;;;;4.82;94.70;100505.19;5022571;28;20052;-76
2021/03/21 11:23:47;;;;;;;26.30;5.22;;;;;;;5.21;93.96;100508.03;5027596;28;20032;-75
2021/03/21 11:26:26;;;;;;;21.90;5.90;;;;;;;5.29;94.00;100515.56;5040398;28;20068;-75
2021/03/21 11:29:05;;;;;;;30.40;4.63;;;;;;;5.19;92.36;100514.25;5028004;28;20060;-74
2021/03/21 11:31:33;;;;;;;19.90;4.15;;;;;;;5.37;91.59;100515.28;5025504;28;20085;-78
2021/03/21 11:34:19;;;;;;;30.60;5.07;;;;;;;5.79;89.36;100507.47;5029824;28;20092;-76
2021/03/21 11:36:59;;;;;;;19.23;4.20;;;;;;;5.81;88.71;100498.69;5024070;28;20055;-75
2021/03/21 11:39:42;;;;;;;23.60;4.28;;;;;;;5.85;88.57;100502.00;5006458;28;20416;-79
2021/03/21 11:42:23;;;;;;;24.55;4.60;;;;;;;5.65;88.24;100501.97;5025294;28;20053;-76
2021/03/21 11:44:52;;;;;;;28.55;5.32;;;;;;;5.66;89.10;100506.28;5011120;28;20048;-76
2021/03/21 11:47:25;;;;;;;19.67;4.72;;;;;;;5.59;88.22;100498.72;5013222;28;20041;-75
2021/03/21 11:49:53;;;;;;;21.33;5.07;;;;;;;5.90;87.17;100496.56;5023705;28;20417;-75
2021/03/21 11:52:21;;;;;;;31.55;5.25;;;;;;;6.13;86.35;100487.84;5036593;28;20127;-73
2021/03/21 11:54:47;;;;;;;26.33;5.43;;;;;;;6.45;84.60;100502.13;4994393;28;20049;-77
2021/03/21 11:57:27;;;;;;;35.00;6.00;;;;;;;6.41;84.35;100496.16;5043531;28;20052;-75
2021/03/21 12:00:37;;;;;;;27.00;5.03;;;;;;;6.62;82.99;100490.88;5047111;28;20045;-77
2021/03/21 12:03:19;;;;;;;31.25;7.57;;;;;;;7.15;82.75;100492.81;5032569;28;20156;-77
2021/03/21 12:06:19;;;;;;;15.63;3.95;;;;;;;7.04;80.73;100478.47;5029811;28;20423;-75
2021/03/21 12:08:46;;;;;;;23.83;5.28;;;;;;;7.23;79.77;100488.09;5019982;28;20060;-75
2021/03/21 12:11:24;;;;;;;20.00;3.92;;;;;;;7.65;77.08;100489.56;5000188;28;20049;-75
2021/03/21 12:13:53;;;;;;;24.15;5.75;;;;;;;7.31;78.36;100480.72;5032926;28;20119;-77